Time;durP1;ratioP1;P1;durP2;ratioP2;P2;SDS_P1;SDS_P2;PMS_P1;PMS_P2;Temp;Humidity;BMP_temperature;BMP_pressure;BME280_temperature;BME280_humidity;BME280_pressure;Samples;Min_cycle;Max_cycle;Signal;HPM_P1;HPM_P2
2021/06/20 00:01:48;;;;;;;23.63;20.50;;;563.60;2432.00;;;;;;5073631;28;20040;-75
2021/06/20 00:04:14;;;;;;;23.80;18.88;;;563.70;2432.00;;;;;;5073673;28;20020;-74
2021/06/20 00:06:48;;;;;;;22.65;18.27;;;563.70;2432.00;;;;;;5072575;28;20361;-75
2021/06/20 00:09:14;;;;;;;21.13;18.38;;;563.60;2432.00;;;;;;5075005;28;20100;-78
2021/06/20 00:11:42;;;;;;;22.58;17.17;;;563.40;2432.00;;;;;;5077689;28;20379;-76
2021/06/20 00:14:10;;;;;;;18.80;16.73;;;538.40;2406.40;;;;;;5077251;28;20021;-75
2021/06/20 00:16:36;;;;;;;20.00;17.92;;;538.10;2406.40;;;;;;5076986;28;20016;-78
2021/06/20 00:19:04;;;;;;;18.90;16.33;;;537.90;2406.40;;;;;;5077168;28;20461;-75
2021/06/20 00:21:30;;;;;;;16.98;15.18;;;537.80;2406.40;;;;;;5077276;28;20035;-77
2021/06/20 00:23:56;;;;;;;19.88;15.73;;;512.90;2380.80;;;;;;5077540;28;20044;-74
2021/06/20 00:26:22;;;;;;;21.02;16.27;;;512.90;2380.80;;;;;;5077215;28;20020;-75
2021/06/20 00:28:48;;;;;;;19.92;15.80;;;512.70;2380.80;;;;;;5075828;28;20031;-76
2021/06/20 00:31:17;;;;;;;23.00;17.13;;;512.70;2380.80;;;;;;5076866;28;20025;-79
2021/06/20 00:33:43;;;;;;;23.30;16.60;;;512.60;2380.80;;;;;;5077266;28;20027;-75
2021/06/20 00:36:10;;;;;;;18.10;16.27;;;512.70;2380.80;;;;;;5076938;28;20028;-75
2021/06/20 00:38:36;;;;;;;20.77;17.25;;;512.80;2380.80;;;;;;5076993;28;20380;-77
2021/06/20 00:41:03;;;;;;;18.48;16.40;;;537.60;2406.40;;;;;;5077040;28;20025;-74
2021/06/20 00:43:29;;;;;;;19.80;17.70;;;537.80;2406.40;;;;;;5076509;28;20479;-75
2021/06/20 00:45:55;;;;;;;17.58;15.05;;;537.90;2406.40;;;;;;5076282;28;20032;-74
2021/06/20 00:48:20;;;;;;;21.60;15.43;;;538.00;2406.40;;;;;;5076817;28;20031;-77
2021/06/20 00:50:46;;;;;;;18.05;15.45;;;538.20;2406.40;;;;;;5077238;28;20017;-74
2021/06/20 00:53:13;;;;;;;16.67;14.95;;;538.20;2406.40;;;;;;5077143;28;20032;-80
2021/06/20 00:55:39;;;;;;;22.30;14.95;;;538.30;2406.40;;;;;;5076227;28;20051;-74
2021/06/20 00:58:07;;;;;;;18.85;15.40;;;538.40;2406.40;;;;;;5076717;28;20028;-77
2021/06/20 01:00:36;;;;;;;19.13;15.30;;;538.50;2406.40;;;;;;5076331;28;20099;-75
2021/06/20 01:03:05;;;;;;;19.88;14.50;;;538.50;2406.40;;;;;;5076211;28;20055;-76
2021/06/20 01:05:31;;;;;;;16.95;15.18;;;538.50;2406.40;;;;;;5076138;28;20029;-76
2021/06/20 01:07:57;;;;;;;21.77;16.70;;;563.20;2432.00;;;;;;5076043;28;20074;-77
2021/06/20 01:10:26;;;;;;;15.68;14.07;;;563.20;2432.00;;;;;;5076397;28;20016;-80
2021/06/20 01:12:52;;;;;;;18.77;15.15;;;563.20;2432.00;;;;;;5075925;28;20082;-78
2021/06/20 01:15:18;;;;;;;18.30;16.35;;;563.20;2432.00;;;;;;5076275;28;20025;-80
2021/06/20 01:17:44;;;;;;;16.92;14.73;;;563.30;2432.00;;;;;;5076371;28;20031;-75
2021/06/20 01:20:14;;;;;;;20.52;14.45;;;563.30;2432.00;;;;;;5075409;28;20048;-78
2021/06/20 01:22:44;;;;;;;20.90;15.40;;;563.40;2432.00;;;;;;5075388;28;20040;-75
2021/06/20 01:25:17;;;;;;;16.80;14.18;;;563.40;2432.00;;;;;;5075982;28;20024;-75
2021/06/20 01:27:53;;;;;;;20.90;16.10;;;563.40;2432.00;;;;;;5075864;28;20133;-76
2021/06/20 01:30:26;;;;;;;15.80;13.68;;;563.50;2432.00;;;;;;5075924;28;20085;-76
2021/06/20 01:32:53;;;;;;;23.83;17.58;;;563.40;2432.00;;;;;;5075856;28;20039;-74
2021/06/20 01:35:19;;;;;;;19.33;16.55;;;538.50;2406.40;;;;;;5076019;28;20373;-79
2021/06/20 01:37:45;;;;;;;19.13;14.93;;;538.50;2406.40;;;;;;5075651;28;20034;-75
2021/06/20 01:40:15;;;;;;;19.05;15.23;;;538.40;2406.40;;;;;;5075512;28;20530;-79
2021/06/20 01:42:41;;;;;;;16.30;14.60;;;538.40;2406.40;;;;;;5075112;28;20036;-77
2021/06/20 01:45:09;;;;;;;19.60;14.95;;;538.10;2406.40;;;;;;5075442;28;20025;-75
2021/06/20 01:47:35;;;;;;;16.02;13.45;;;538.20;2406.40;;;;;;5075155;28;20442;-75
2021/06/20 01:50:04;;;;;;;17.88;14.75;;;538.00;2406.40;;;;;;5075115;28;20024;-75
2021/06/20 01:52:30;;;;;;;19.30;13.93;;;537.90;2406.40;;;;;;5075146;28;20048;-75
2021/06/20 01:54:56;;;;;;;17.83;14.98;;;537.80;2406.40;;;;;;5075269;28;20095;-75
2021/06/20 01:57:21;;;;;;;21.42;15.85;;;537.80;2406.40;;;;;;5073923;28;20033;-76
2021/06/20 01:59:48;;;;;;;17.80;15.57;;;537.80;2406.40;;;;;;5075182;28;20453;-76
2021/06/20 02:02:14;;;;;;;18.52;15.98;;;537.90;2406.40;;;;;;5075351;28;20396;-78
2021/06/20 02:04:40;;;;;;;20.58;14.10;;;538.00;2406.40;;;;;;5075421;28;20416;-76
2021/06/20 02:07:08;;;;;;;15.93;13.95;;;538.00;2406.40;;;;;;5075196;28;20055;-75
2021/06/20 02:09:34;;;;;;;17.92;14.45;;;538.10;2406.40;;;;;;5075049;28;20023;-80
2021/06/20 02:11:59;;;;;;;19.25;15.10;;;538.10;2406.40;;;;;;5074963;28;20025;-74
2021/06/20 02:14:25;;;;;;;18.92;15.93;;;538.20;2406.40;;;;;;5075129;28;20020;-80
2021/06/20 02:16:51;;;;;;;20.70;14.93;;;538.20;2406.40;;;;;;5073724;28;20060;-75
2021/06/20 02:19:17;;;;;;;18.83;16.10;;;538.20;2406.40;;;;;;5074953;28;20397;-81
2021/06/20 02:21:43;;;;;;;17.77;15.65;;;538.10;2406.40;;;;;;5074906;28;20067;-74
2021/06/20 02:24:08;;;;;;;22.73;14.95;;;538.10;2406.40;;;;;;5074931;28;20032;-81
2021/06/20 02:26:34;;;;;;;18.08;15.18;;;538.10;2406.40;;;;;;5074888;28;20024;-79
2021/06/20 02:29:00;;;;;;;18.92;15.38;;;538.10;2406.40;;;;;;5074962;28;20081;-77
2021/06/20 02:31:26;;;;;;;16.92;15.05;;;538.10;2406.40;;;;;;5074427;28;20486;-79
2021/06/20 02:33:52;;;;;;;19.00;15.02;;;538.10;2406.40;;;;;;5074946;28;20100;-75
2021/06/20 02:36:18;;;;;;;19.77;15.35;;;538.10;2406.40;;;;;;5074707;28;20044;-75
2021/06/20 02:38:44;;;;;;;17.60;15.43;;;538.10;2406.40;;;;;;5076320;28;20508;-75
2021/06/20 02:41:09;;;;;;;17.83;15.55;;;538.00;2406.40;;;;;;5077811;28;20028;-74
2021/06/20 02:43:35;;;;;;;18.92;16.92;;;538.10;2406.40;;;;;;5075761;28;20028;-78
2021/06/20 02:46:01;;;;;;;19.10;14.02;;;538.10;2406.40;;;;;;5074652;28;20021;-81
2021/06/20 02:48:26;;;;;;;16.45;14.20;;;538.10;2406.40;;;;;;5074136;28;20052;-79
2021/06/20 02:50:52;;;;;;;16.42;12.88;;;538.10;2406.40;;;;;;5074104;28;20377;-77
2021/06/20 02:53:18;;;;;;;15.95;13.50;;;538.10;2406.40;;;;;;5074384;28;20044;-78
2021/06/20 02:55:44;;;;;;;15.77;13.27;;;538.00;2406.40;;;;;;5074082;28;20044;-77
2021/06/20 02:58:11;;;;;;;14.93;12.55;;;537.80;2406.40;;;;;;5073879;28;20051;-76
2021/06/20 03:00:36;;;;;;;18.55;14.07;;;537.70;2406.40;;;;;;5074022;28;20468;-79
2021/06/20 03:03:03;;;;;;;23.23;16.40;;;537.60;2406.40;;;;;;5072717;28;20047;-75
2021/06/20 03:05:29;;;;;;;16.63;14.32;;;537.60;2406.40;;;;;;5073993;28;20086;-75
2021/06/20 03:07:55;;;;;;;15.07;13.35;;;512.90;2380.80;;;;;;5074113;28;20510;-74
2021/06/20 03:10:21;;;;;;;16.08;13.75;;;512.80;2380.80;;;;;;5073610;28;20025;-78
2021/06/20 03:12:47;;;;;;;19.05;16.25;;;512.70;2380.80;;;;;;5073699;28;20016;-78
2021/06/20 03:15:13;;;;;;;20.30;16.77;;;512.60;2380.80;;;;;;5074179;28;20029;-81
2021/06/20 03:17:39;;;;;;;18.17;16.25;;;512.70;2380.80;;;;;;5074569;28;20029;-74
2021/06/20 03:20:06;;;;;;;24.33;16.65;;;512.70;2380.80;;;;;;5075611;28;20021;-81
2021/06/20 03:22:32;;;;;;;23.00;19.00;;;512.80;2380.80;;;;;;5080128;28;20035;-76
2021/06/20 03:24:59;;;;;;;20.63;17.73;;;512.80;2380.80;;;;;;5096791;28;20032;-76
2021/06/20 03:27:25;;;;;;;21.70;16.70;;;537.60;2406.40;;;;;;5096157;28;20021;-81
2021/06/20 03:29:51;;;;;;;22.85;18.63;;;537.70;2406.40;;;;;;5097077;28;20051;-76
2021/06/20 03:32:21;;;;;;;21.42;18.85;;;537.80;2406.40;;;;;;5091291;28;20027;-83
2021/06/20 03:34:47;;;;;;;21.10;17.05;;;537.80;2406.40;;;;;;5094760;28;20039;-80
2021/06/20 03:37:13;;;;;;;22.15;17.77;;;538.00;2406.40;;;;;;5095780;28;20072;-78
2021/06/20 03:39:38;;;;;;;18.20;16.25;;;538.00;2406.40;;;;;;5083801;28;20017;-76
2021/06/20 03:42:04;;;;;;;20.73;17.90;;;538.10;2406.40;;;;;;5074882;28;20536;-83
2021/06/20 03:44:30;;;;;;;24.58;17.58;;;538.00;2406.40;;;;;;5075430;28;20028;-75
2021/06/20 03:46:58;;;;;;;20.67;16.63;;;538.00;2406.40;;;;;;5078827;28;20025;-82
2021/06/20 03:49:23;;;;;;;22.98;19.35;;;538.10;2406.40;;;;;;5077935;28;20074;-83
2021/06/20 03:51:49;;;;;;;22.55;20.15;;;538.10;2406.40;;;;;;5077668;28;20024;-82
2021/06/20 03:54:15;;;;;;;22.50;19.10;;;538.10;2406.40;;;;;;5077391;28;20400;-75
2021/06/20 03:56:41;;;;;;;19.90;17.80;;;538.20;2406.40;;;;;;5077417;28;20448;-82
2021/06/20 03:59:10;;;;;;;18.35;16.15;;;538.20;2406.40;;;;;;5077705;28;20016;-74
2021/06/20 04:01:37;;;;;;;23.73;18.30;;;538.20;2406.40;;;;;;5077251;28;20369;-75
2021/06/20 04:04:03;;;;;;;22.50;17.35;;;538.30;2406.40;;;;;;5077452;28;20024;-75
2021/06/20 04:06:29;;;;;;;19.52;17.05;;;538.20;2406.40;;;;;;5077334;28;20021;-74
2021/06/20 04:08:55;;;;;;;18.58;16.58;;;538.20;2406.40;;;;;;5077083;28;20230;-75
2021/06/20 04:11:21;;;;;;;17.42;15.55;;;538.10;2406.40;;;;;;5077302;28;20388;-75
2021/06/20 04:13:46;;;;;;;18.27;15.65;;;538.10;2406.40;;;;;;5077558;28;20096;-75
2021/06/20 04:16:12;;;;;;;15.88;14.18;;;538.30;2406.40;;;;;;5077124;28;20024;-75
2021/06/20 04:18:38;;;;;;;16.88;14.90;;;538.20;2406.40;;;;;;5076715;28;20027;-75
2021/06/20 04:21:04;;;;;;;17.13;15.45;;;538.10;2406.40;;;;;;5076965;28;20020;-74
2021/06/20 04:23:29;;;;;;;16.48;13.35;;;538.10;2406.40;;;;;;5076850;28;20044;-76
2021/06/20 04:25:55;;;;;;;16.00;14.32;;;538.10;2406.40;;;;;;5076876;28;20384;-74
2021/06/20 04:28:21;;;;;;;16.23;13.73;;;538.30;2406.40;;;;;;5075268;28;20128;-75
2021/06/20 04:30:53;;;;;;;18.05;15.10;;;538.40;2406.40;;;;;;5076613;28;20031;-75
2021/06/20 04:33:18;;;;;;;17.65;15.60;;;538.40;2406.40;;;;;;5076595;28;20078;-75
2021/06/20 04:35:44;;;;;;;16.98;15.25;;;538.50;2406.40;;;;;;5076594;28;20025;-75
2021/06/20 04:38:10;;;;;;;15.15;13.48;;;538.50;2406.40;;;;;;5076558;28;20472;-74
2021/06/20 04:40:36;;;;;;;18.70;14.55;;;538.30;2406.40;;;;;;5076507;28;20032;-74
2021/06/20 04:43:11;;;;;;;18.05;14.80;;;538.10;2406.40;;;;;;5076315;28;20028;-74
2021/06/20 04:45:37;;;;;;;20.30;16.75;;;538.00;2406.40;;;;;;5076321;28;20021;-74
2021/06/20 04:48:03;;;;;;;20.60;14.85;;;538.00;2406.40;;;;;;5076332;28;20472;-75
2021/06/20 04:50:29;;;;;;;22.15;14.45;;;538.00;2406.40;;;;;;5076350;28;20542;-74
2021/06/20 04:52:55;;;;;;;18.05;15.82;;;538.00;2406.40;;;;;;5076256;28;20036;-74
2021/06/20 04:55:20;;;;;;;18.05;15.68;;;538.00;2406.40;;;;;;5075969;28;20496;-75
2021/06/20 04:57:46;;;;;;;21.35;17.02;;;538.00;2406.40;;;;;;5076466;28;20028;-78
2021/06/20 05:00:12;;;;;;;20.85;17.90;;;538.00;2406.40;;;;;;5076310;28;20380;-76
2021/06/20 05:02:38;;;;;;;17.80;15.10;;;538.10;2406.40;;;;;;5075848;28;20048;-74
2021/06/20 05:05:06;;;;;;;18.77;16.80;;;538.30;2406.40;;;;;;5076234;28;20036;-76
2021/06/20 05:07:32;;;;;;;17.83;15.05;;;538.40;2406.40;;;;;;5076345;28;20024;-75
2021/06/20 05:09:58;;;;;;;17.92;16.02;;;538.50;2406.40;;;;;;5075904;28;20036;-75
2021/06/20 05:12:24;;;;;;;22.63;18.00;;;538.50;2406.40;;;;;;5076149;28;20020;-83
2021/06/20 05:14:49;;;;;;;28.05;19.42;;;563.30;2432.00;;;;;;5076140;28;20020;-75
2021/06/20 05:17:18;;;;;;;18.48;16.58;;;563.40;2432.00;;;;;;5074902;28;20101;-74
2021/06/20 05:19:44;;;;;;;22.67;19.27;;;563.50;2432.00;;;;;;5076163;28;20051;-80
2021/06/20 05:22:11;;;;;;;23.10;16.88;;;563.60;2432.00;;;;;;5076245;28;20082;-75
2021/06/20 05:24:39;;;;;;;18.38;15.73;;;563.60;2432.00;;;;;;5076473;28;20052;-78
2021/06/20 05:27:05;;;;;;;18.73;16.80;;;563.60;2432.00;;;;;;5076492;28;20031;-80
2021/06/20 05:29:31;;;;;;;23.55;17.58;;;563.70;2432.00;;;;;;5076469;28;20349;-75
2021/06/20 05:31:57;;;;;;;23.38;18.38;;;563.70;2432.00;;;;;;5076009;28;20036;-79
2021/06/20 05:34:23;;;;;;;19.05;16.95;;;563.80;2432.00;;;;;;5075987;28;20548;-78
2021/06/20 05:36:48;;;;;;;19.27;16.67;;;563.80;2432.00;;;;;;5075995;28;20380;-80
2021/06/20 05:39:14;;;;;;;19.67;14.40;;;563.90;2432.00;;;;;;5076051;28;20530;-81
2021/06/20 05:41:40;;;;;;;21.45;15.60;;;563.80;2432.00;;;;;;5076007;28;20024;-76
2021/06/20 05:44:06;;;;;;;21.27;16.10;;;563.70;2432.00;;;;;;5075822;28;20027;-81
2021/06/20 05:46:32;;;;;;;18.98;16.33;;;563.70;2432.00;;;;;;5075563;28;20040;-76
2021/06/20 05:48:58;;;;;;;19.27;16.75;;;563.70;2432.00;;;;;;5075670;28;20029;-74
2021/06/20 05:51:24;;;;;;;20.23;14.98;;;563.70;2432.00;;;;;;5075238;28;20012;-81
2021/06/20 05:53:49;;;;;;;19.67;16.80;;;563.70;2432.00;;;;;;5075349;28;20032;-80
2021/06/20 05:56:15;;;;;;;20.58;18.40;;;563.90;2432.00;;;;;;5075340;28;20071;-77
2021/06/20 05:58:41;;;;;;;18.63;16.67;;;564.00;2432.00;;;;;;5075301;28;20028;-76
2021/06/20 06:01:07;;;;;;;20.42;15.90;;;588.80;2432.00;;;;;;5075525;28;20052;-77
2021/06/20 06:03:34;;;;;;;19.50;15.65;;;588.90;2432.00;;;;;;5075497;28;20040;-75
2021/06/20 06:06:00;;;;;;;23.10;17.48;;;589.10;2432.00;;;;;;5075090;28;20019;-75
2021/06/20 06:08:26;;;;;;;17.38;14.55;;;589.20;2432.00;;;;;;5074298;28;20078;-76
2021/06/20 06:10:52;;;;;;;16.40;14.80;;;589.20;2432.00;;;;;;5075219;28;20024;-75
2021/06/20 06:13:18;;;;;;;19.20;15.20;;;589.30;2432.00;;;;;;5074690;28;20064;-75
2021/06/20 06:15:44;;;;;;;20.63;14.25;;;589.30;2432.00;;;;;;5075394;28;20044;-75
2021/06/20 06:18:09;;;;;;;28.15;22.90;;;589.40;2432.00;;;;;;5076060;28;20032;-75
2021/06/20 06:20:35;;;;;;;18.45;16.25;;;589.50;2432.00;;;;;;5074895;28;20078;-75
2021/06/20 06:23:01;;;;;;;19.05;17.10;;;589.60;2432.00;;;;;;5075760;28;20051;-74
2021/06/20 06:25:27;;;;;;;18.08;16.20;;;589.70;2432.00;;;;;;5074647;28;20472;-75
2021/06/20 06:27:54;;;;;;;19.13;15.40;;;614.40;2432.00;;;;;;5074839;28;20481;-75
2021/06/20 06:30:20;;;;;;;21.23;17.13;;;614.50;2432.00;;;;;;5074722;28;20073;-75
2021/06/20 06:32:47;;;;;;;18.38;15.85;;;614.50;2432.00;;;;;;5074914;28;20020;-78
2021/06/20 06:35:14;;;;;;;23.13;20.88;;;614.60;2432.00;;;;;;5074108;28;20384;-75
2021/06/20 06:37:40;;;;;;;16.45;14.45;;;614.90;2432.00;;;;;;5074162;28;20099;-76
2021/06/20 06:40:07;;;;;;;20.95;15.45;;;614.80;2432.00;;;;;;5074065;28;20520;-77
2021/06/20 06:42:33;;;;;;;20.10;17.10;;;614.80;2432.00;;;;;;5073922;28;20400;-77
2021/06/20 06:44:59;;;;;;;17.83;15.50;;;614.90;2432.00;;;;;;5072951;28;20035;-75
2021/06/20 06:47:25;;;;;;;17.15;15.27;;;615.00;2432.00;;;;;;5072456;28;20040;-79
2021/06/20 06:49:51;;;;;;;20.00;15.60;;;615.10;2432.00;;;;;;5073898;28;20021;-76
2021/06/20 06:52:18;;;;;;;18.42;14.40;;;615.20;2432.00;;;;;;5073292;28;20048;-76
2021/06/20 06:54:51;;;;;;;19.30;17.30;;;615.30;2432.00;;;;;;5073406;28;20048;-76
2021/06/20 06:57:22;;;;;;;20.65;17.27;;;640.00;2432.00;;;;;;5073104;28;20029;-77
2021/06/20 06:59:51;;;;;;;17.50;15.70;;;640.00;2432.00;;;;;;5074111;28;20028;-77
2021/06/20 07:02:17;;;;;;;21.38;17.63;;;640.10;2432.00;;;;;;5072418;28;20124;-76
2021/06/20 07:04:43;;;;;;;16.98;15.32;;;640.20;2432.00;;;;;;5072895;28;20093;-77
2021/06/20 07:07:09;;;;;;;16.80;15.13;;;640.20;2432.00;;;;;;5072468;28;20020;-77
2021/06/20 07:09:35;;;;;;;22.52;14.57;;;640.30;2432.00;;;;;;5073912;28;20499;-76
2021/06/20 07:12:01;;;;;;;16.70;15.00;;;640.40;2432.00;;;;;;5072818;28;20021;-77
2021/06/20 07:14:29;;;;;;;19.65;17.40;;;640.60;2432.00;;;;;;5072646;28;20078;-78
2021/06/20 07:16:55;;;;;;;19.13;17.05;;;640.70;2432.00;;;;;;5074470;28;20035;-79
2021/06/20 07:19:21;;;;;;;20.25;18.15;;;640.90;2432.00;;;;;;5073319;28;20024;-79
2021/06/20 07:21:47;;;;;;;19.60;17.35;;;665.60;2432.00;;;;;;5072806;28;20167;-78
2021/06/20 07:24:12;;;;;;;15.13;13.52;;;665.70;2432.00;;;;;;5072615;28;20044;-76
2021/06/20 07:26:38;;;;;;;22.33;16.70;;;665.70;2406.40;;;;;;5073694;28;20078;-77
2021/06/20 07:29:04;;;;;;;18.10;14.20;;;665.80;2380.80;;;;;;5072113;28;20028;-79
2021/06/20 07:31:30;;;;;;;17.27;15.02;;;666.00;2380.80;;;;;;5072400;28;20422;-78
2021/06/20 07:33:56;;;;;;;17.17;15.48;;;666.00;2355.20;;;;;;5072713;28;20070;-77
2021/06/20 07:36:21;;;;;;;18.20;16.35;;;666.20;2355.20;;;;;;5072832;28;20036;-78
2021/06/20 07:38:47;;;;;;;19.70;17.65;;;666.40;2304.00;;;;;;5072389;28;20730;-77
2021/06/20 07:41:14;;;;;;;14.60;13.10;;;691.20;2278.40;;;;;;5072437;28;20021;-77
2021/06/20 07:43:40;;;;;;;16.08;14.48;;;691.40;2304.00;;;;;;5071989;28;20431;-78
2021/06/20 07:46:06;;;;;;;18.02;15.30;;;691.60;2278.40;;;;;;5072338;28;20029;-78
2021/06/20 07:48:32;;;;;;;14.18;12.45;;;691.70;2252.80;;;;;;5072030;28;20056;-77
2021/06/20 07:50:58;;;;;;;12.80;11.63;;;691.80;2176.00;;;;;;5071961;28;20051;-79
2021/06/20 07:53:24;;;;;;;17.25;15.50;;;691.80;2150.40;;;;;;5072335;28;20089;-77
2021/06/20 07:55:50;;;;;;;14.23;12.38;;;692.10;2124.80;;;;;;5071828;28;20045;-76
2021/06/20 07:58:16;;;;;;;14.45;12.43;;;716.90;2073.60;;;;;;5071995;28;20058;-77
2021/06/20 08:00:42;;;;;;;13.77;11.05;;;716.80;1996.80;;;;;;5071729;28;20381;-79
2021/06/20 08:03:08;;;;;;;14.48;10.25;;;716.80;1971.20;;;;;;5072156;28;20028;-77
2021/06/20 08:05:35;;;;;;;14.48;10.27;;;716.80;1971.20;;;;;;5071779;28;20016;-79
2021/06/20 08:08:01;;;;;;;11.68;10.48;;;716.80;1945.60;;;;;;5072074;28;20029;-76
2021/06/20 08:10:28;;;;;;;11.05;9.73;;;717.00;1920.00;;;;;;5073300;28;20100;-78
2021/06/20 08:12:53;;;;;;;15.00;10.40;;;717.00;1868.80;;;;;;5071842;28;20391;-79
2021/06/20 08:15:19;;;;;;;12.48;10.43;;;717.20;1945.60;;;;;;5071885;28;20028;-78
2021/06/20 08:17:45;;;;;;;13.75;10.93;;;717.40;1920.00;;;;;;5071859;28;20178;-77
2021/06/20 08:20:12;;;;;;;15.85;10.30;;;717.60;1894.40;;;;;;5071879;28;20025;-79
2021/06/20 08:22:42;;;;;;;10.65;9.60;;;742.40;1920.00;;;;;;5071750;28;20055;-79
2021/06/20 08:25:10;;;;;;;9.43;8.32;;;742.60;1868.80;;;;;;5072426;28;20021;-77
2021/06/20 08:27:36;;;;;;;13.18;11.77;;;742.70;1792.00;;;;;;5071400;28;20025;-76
2021/06/20 08:30:04;;;;;;;7.95;6.57;;;742.90;1792.00;;;;;;5072620;28;20025;-78
2021/06/20 08:32:30;;;;;;;14.40;8.65;;;743.00;1740.80;;;;;;5076620;28;20426;-79
2021/06/20 08:34:59;;;;;;;10.52;7.70;;;743.10;1715.20;;;;;;5076683;28;20025;-77
2021/06/20 08:37:25;;;;;;;10.50;8.57;;;743.30;1664.00;;;;;;5075281;28;20069;-76
2021/06/20 08:39:50;;;;;;;11.88;7.53;;;768.00;1638.40;;;;;;5075216;28;20036;-76
2021/06/20 08:42:16;;;;;;;8.98;8.07;;;768.10;1638.40;;;;;;5075384;28;20038;-78
2021/06/20 08:44:42;;;;;;;14.30;7.38;;;768.30;1664.00;;;;;;5075297;28;20162;-77
2021/06/20 08:47:09;;;;;;;9.07;7.60;;;768.60;1664.00;;;;;;5075631;28;20456;-79
2021/06/20 08:49:35;;;;;;;12.73;9.25;;;768.70;1638.40;;;;;;5075111;28;20027;-76
2021/06/20 08:52:02;;;;;;;10.77;6.95;;;768.90;1638.40;;;;;;5075503;28;20025;-80
2021/06/20 08:54:29;;;;;;;9.35;8.35;;;768.90;1587.20;;;;;;5075110;28;20051;-79
2021/06/20 08:56:55;;;;;;;8.23;7.43;;;768.90;1612.80;;;;;;5075000;28;20024;-76
2021/06/20 08:59:22;;;;;;;10.45;9.35;;;793.60;1638.40;;;;;;5074839;28;20380;-76
2021/06/20 09:01:50;;;;;;;13.85;8.45;;;793.80;1638.40;;;;;;5074752;28;20034;-78
2021/06/20 09:04:27;;;;;;;10.07;7.72;;;793.70;1561.60;;;;;;5076086;28;20017;-76
2021/06/20 09:06:53;;;;;;;8.20;6.80;;;793.70;1587.20;;;;;;5076155;28;20017;-76
2021/06/20 09:09:31;;;;;;;10.13;7.13;;;793.60;1587.20;;;;;;5075324;28;20029;-77
2021/06/20 09:12:11;;;;;;;9.55;7.45;;;793.60;1612.80;;;;;;5074791;28;20028;-77
2021/06/20 09:14:51;;;;;;;12.68;7.80;;;793.60;1587.20;;;;;;5074530;28;20028;-77
2021/06/20 09:17:28;;;;;;;10.23;6.88;;;793.70;1638.40;;;;;;5074760;28;20024;-76
2021/06/20 09:19:58;;;;;;;7.57;6.10;;;793.80;1561.60;;;;;;5075562;28;20024;-77
2021/06/20 09:22:24;;;;;;;11.30;7.57;;;793.70;1536.00;;;;;;5075340;28;20042;-78
2021/06/20 09:25:00;;;;;;;7.82;6.13;;;794.00;1536.00;;;;;;5077225;28;20033;-78
2021/06/20 09:27:26;;;;;;;7.20;5.78;;;794.00;1484.80;;;;;;5076002;28;20028;-78
2021/06/20 09:29:52;;;;;;;9.27;7.18;;;793.70;1484.80;;;;;;5077646;28;20037;-76
2021/06/20 09:32:18;;;;;;;6.53;5.93;;;793.70;1510.40;;;;;;5076996;28;20024;-77
2021/06/20 09:34:47;;;;;;;9.82;7.32;;;793.60;1510.40;;;;;;5076342;28;20074;-76
2021/06/20 09:37:13;;;;;;;7.95;4.47;;;793.60;1510.40;;;;;;5076059;28;20447;-76
2021/06/20 09:39:39;;;;;;;5.95;4.15;;;793.60;1433.60;;;;;;5074286;28;20498;-76
2021/06/20 09:42:09;;;;;;;4.70;3.90;;;793.70;1433.60;;;;;;5073112;28;20037;-77
2021/06/20 09:44:54;;;;;;;6.32;4.47;;;793.70;1382.40;;;;;;5073807;28;20031;-77
2021/06/20 09:47:26;;;;;;;3.75;3.30;;;794.00;1408.00;;;;;;5074169;28;20028;-77
2021/06/20 09:49:54;;;;;;;4.47;3.70;;;794.20;1331.20;;;;;;5074234;28;20472;-76
2021/06/20 09:52:35;;;;;;;6.20;3.30;;;794.30;1331.20;;;;;;5074122;28;20028;-76
2021/06/20 09:55:08;;;;;;;5.93;3.03;;;794.50;1305.60;;;;;;5074509;28;20470;-78
2021/06/20 09:57:46;;;;;;;7.38;3.05;;;794.50;1280.00;;;;;;5074630;28;20020;-76
2021/06/20 10:00:13;;;;;;;5.15;3.03;;;819.30;1254.40;;;;;;5074262;28;20120;-76
2021/06/20 10:02:39;;;;;;;4.05;2.85;;;819.40;1356.80;;;;;;5073746;28;20032;-76
2021/06/20 10:05:07;;;;;;;8.60;3.58;;;819.60;1280.00;;;;;;5057402;28;20045;-78
2021/06/20 10:07:33;;;;;;;3.97;2.83;;;819.60;1254.40;;;;;;5073598;28;20488;-77
2021/06/20 10:10:01;;;;;;;5.28;3.67;;;819.80;1305.60;;;;;;5073924;28;20040;-76
2021/06/20 10:12:28;;;;;;;5.25;3.22;;;820.00;1280.00;;;;;;5073721;28;20028;-77
2021/06/20 10:14:55;;;;;;;5.20;3.45;;;820.00;1228.80;;;;;;5073852;28;20128;-76
2021/06/20 10:17:36;;;;;;;8.02;3.70;;;820.10;1254.40;;;;;;5073361;28;20025;-77
2021/06/20 10:20:07;;;;;;;4.03;3.42;;;844.80;1254.40;;;;;;5073325;28;20028;-78
2021/06/20 10:22:38;;;;;;;4.85;3.28;;;844.90;1228.80;;;;;;5073559;28;20070;-77
2021/06/20 10:25:10;;;;;;;4.60;3.42;;;845.00;1305.60;;;;;;5073651;28;20115;-77
2021/06/20 10:27:44;;;;;;;7.27;3.40;;;845.00;1280.00;;;;;;5073420;28;20029;-77
2021/06/20 10:30:16;;;;;;;4.40;3.35;;;845.20;1203.20;;;;;;5073482;28;20025;-78
2021/06/20 10:32:47;;;;;;;6.05;4.75;;;845.20;1203.20;;;;;;5074235;28;20021;-79
2021/06/20 10:35:20;;;;;;;7.45;3.90;;;845.40;1228.80;;;;;;5073368;28;20495;-79
2021/06/20 10:37:47;;;;;;;4.82;3.15;;;845.60;1203.20;;;;;;5073069;28;20031;-77
2021/06/20 10:40:23;;;;;;;4.68;2.75;;;845.60;1177.60;;;;;;5073190;28;20027;-76
2021/06/20 10:42:50;;;;;;;4.35;3.50;;;845.40;1152.00;;;;;;5073216;28;20110;-79
2021/06/20 10:45:34;;;;;;;5.88;4.60;;;845.60;1203.20;;;;;;5074330;28;20074;-79
2021/06/20 10:48:12;;;;;;;7.07;3.75;;;845.70;1203.20;;;;;;5073114;28;20029;-77
2021/06/20 10:50:41;;;;;;;4.43;3.30;;;845.70;1152.00;;;;;;5074427;28;20100;-77
2021/06/20 10:53:07;;;;;;;6.50;3.70;;;845.70;1177.60;;;;;;5072702;28;20028;-81
2021/06/20 10:55:41;;;;;;;4.35;3.50;;;870.40;1152.00;;;;;;5073576;28;20048;-79
2021/06/20 10:58:20;;;;;;;5.88;4.55;;;870.40;1152.00;;;;;;5075013;28;20051;-78
2021/06/20 11:00:46;;;;;;;4.55;3.55;;;870.60;1203.20;;;;;;5075620;28;20025;-79
2021/06/20 11:03:14;;;;;;;3.95;3.00;;;845.70;1152.00;;;;;;5075903;28;20028;-75
2021/06/20 11:05:43;;;;;;;5.57;3.83;;;845.70;1177.60;;;;;;5075675;28;20361;-78
2021/06/20 11:08:11;;;;;;;8.50;3.28;;;845.70;1152.00;;;;;;5073831;28;20511;-77
2021/06/20 11:10:37;;;;;;;5.70;3.53;;;845.50;1177.60;;;;;;5075183;28;20024;-78
2021/06/20 11:13:04;;;;;;;6.18;3.65;;;845.60;1152.00;;;;;;5073102;28;20040;-77
2021/06/20 11:15:30;;;;;;;6.18;3.80;;;845.60;1177.60;;;;;;5074207;28;20031;-79
2021/06/20 11:18:09;;;;;;;4.88;3.50;;;845.40;1152.00;;;;;;5073937;28;20492;-76
2021/06/20 11:20:36;;;;;;;5.32;3.53;;;845.30;1152.00;;;;;;5073315;28;20040;-78
2021/06/20 11:23:03;;;;;;;7.20;2.72;;;845.30;1203.20;;;;;;5072983;28;20044;-79
2021/06/20 11:25:29;;;;;;;4.13;3.53;;;845.40;1177.60;;;;;;5074087;28;20484;-78
2021/06/20 11:27:56;;;;;;;4.65;3.33;;;845.40;1177.60;;;;;;5073949;28;20036;-76
2021/06/20 11:30:22;;;;;;;3.60;3.10;;;845.40;1152.00;;;;;;5073650;28;20028;-78
2021/06/20 11:32:48;;;;;;;6.57;3.25;;;845.40;1177.60;;;;;;5072819;28;20047;-78
2021/06/20 11:35:18;;;;;;;4.57;3.75;;;845.50;1203.20;;;;;;5072729;28;20469;-79
2021/06/20 11:37:55;;;;;;;4.25;3.15;;;845.50;1203.20;;;;;;5073644;28;20025;-78
2021/06/20 11:40:23;;;;;;;4.88;3.13;;;845.60;1177.60;;;;;;5072687;28;20081;-78
2021/06/20 11:43:00;;;;;;;5.97;3.78;;;845.60;1152.00;;;;;;5072242;28;20128;-79
2021/06/20 11:45:29;;;;;;;6.82;3.38;;;845.70;1177.60;;;;;;5072144;28;20456;-79
2021/06/20 11:47:59;;;;;;;5.35;3.45;;;870.40;1152.00;;;;;;5072287;28;20119;-77
2021/06/20 11:50:32;;;;;;;3.95;2.80;;;870.40;1152.00;;;;;;5073513;28;20021;-76
2021/06/20 11:53:03;;;;;;;7.97;3.50;;;870.50;1100.80;;;;;;5073099;28;20025;-77
2021/06/20 11:55:34;;;;;;;6.95;4.53;;;845.70;1100.80;;;;;;5073408;28;20043;-76
2021/06/20 11:58:08;;;;;;;4.95;3.70;;;845.50;1152.00;;;;;;5073457;28;20040;-74
2021/06/20 12:00:36;;;;;;;5.50;3.88;;;845.60;1203.20;;;;;;5072024;28;20074;-77
2021/06/20 12:03:03;;;;;;;4.43;3.75;;;870.40;1177.60;;;;;;5071996;28;20041;-78
2021/06/20 12:05:31;;;;;;;6.53;4.05;;;870.50;1177.60;;;;;;5075011;28;20028;-76